createdAt,value
2019-03-20T00:02:15.480Z,20.03
2019-03-20T00:04:49.754Z,19.87
2019-03-20T00:07:15.129Z,18.80
2019-03-20T00:09:44.254Z,19.57
2019-03-20T00:12:13.296Z,16.93
2019-03-20T00:14:42.365Z,17.80
2019-03-20T00:17:11.437Z,16.37
2019-03-20T00:19:40.451Z,14.67
2019-03-20T00:22:09.501Z,14.10
2019-03-20T00:24:38.521Z,12.60
2019-03-20T00:27:07.568Z,12.47
2019-03-20T00:29:36.575Z,12.63
2019-03-20T00:32:05.619Z,11.27
2019-03-20T00:34:34.707Z,9.87
2019-03-20T00:37:03.823Z,11.73
2019-03-20T00:39:32.884Z,10.57
2019-03-20T00:42:01.963Z,11.00
2019-03-20T00:44:31.069Z,10.10
2019-03-20T00:47:00.111Z,10.17
2019-03-20T00:49:29.202Z,9.20
2019-03-20T00:51:58.195Z,10.10
2019-03-20T00:54:27.189Z,12.03
2019-03-20T00:56:56.279Z,9.30
2019-03-20T00:59:25.336Z,10.43
2019-03-20T01:01:54.423Z,7.57
2019-03-20T01:04:23.463Z,10.67
2019-03-20T01:06:52.551Z,7.87
2019-03-20T01:09:21.631Z,8.70
2019-03-20T01:11:50.685Z,6.80
2019-03-20T01:14:19.579Z,6.47
2019-03-20T01:16:48.679Z,8.03
2019-03-20T01:19:17.755Z,7.17
2019-03-20T01:21:46.892Z,6.37
2019-03-20T01:24:15.940Z,7.30
2019-03-20T01:26:45.028Z,6.60
2019-03-20T01:29:14.061Z,6.77
2019-03-20T01:31:43.184Z,7.67
2019-03-20T01:34:12.163Z,5.90
2019-03-20T01:36:41.234Z,7.03
2019-03-20T01:39:10.384Z,6.30
2019-03-20T01:41:39.428Z,5.83
2019-03-20T01:44:08.527Z,6.40
2019-03-20T01:46:37.516Z,5.10
2019-03-20T01:49:06.642Z,5.60
2019-03-20T01:51:35.743Z,7.17
2019-03-20T01:54:04.792Z,5.63
2019-03-20T01:56:33.947Z,5.73
2019-03-20T01:59:03.056Z,7.47
2019-03-20T02:01:32.193Z,6.07
2019-03-20T02:04:01.164Z,7.53
2019-03-20T02:06:30.239Z,6.27
2019-03-20T02:08:59.207Z,6.67
2019-03-20T02:11:28.203Z,7.27
2019-03-20T02:13:57.179Z,6.27
2019-03-20T02:16:26.310Z,6.63
2019-03-20T02:18:55.384Z,6.50
2019-03-20T02:21:24.495Z,7.30
2019-03-20T02:23:53.492Z,6.93
2019-03-20T02:26:22.547Z,6.97
2019-03-20T02:28:51.635Z,7.20
2019-03-20T02:31:20.741Z,6.90
2019-03-20T02:33:49.626Z,6.83
2019-03-20T02:36:18.689Z,8.43
2019-03-20T02:38:47.587Z,6.43
2019-03-20T02:41:16.521Z,8.27
2019-03-20T02:43:45.700Z,6.93
2019-03-20T02:46:14.699Z,6.93
2019-03-20T02:48:43.702Z,8.37
2019-03-20T02:51:12.766Z,8.53
2019-03-20T02:53:41.684Z,8.03
2019-03-20T02:56:10.722Z,8.50
2019-03-20T02:58:39.789Z,8.33
2019-03-20T03:01:08.900Z,9.30
2019-03-20T03:03:37.978Z,8.43
2019-03-20T03:06:07.704Z,9.37
2019-03-20T03:08:36.832Z,9.13
2019-03-20T03:11:05.900Z,8.20
2019-03-20T03:13:34.773Z,8.43
2019-03-20T03:16:03.883Z,8.47
2019-03-20T03:18:32.856Z,8.53
2019-03-20T03:21:01.968Z,8.73
2019-03-20T03:23:30.989Z,10.80
2019-03-20T03:26:00.042Z,7.83
2019-03-20T03:28:29.012Z,11.20
2019-03-20T03:30:58.066Z,9.97
2019-03-20T03:33:27.108Z,9.70
2019-03-20T03:35:56.268Z,11.37
2019-03-20T03:38:25.290Z,8.70
2019-03-20T03:40:54.344Z,11.63
2019-03-20T03:43:24.548Z,11.87
2019-03-20T03:45:53.695Z,11.63
2019-03-20T03:48:22.718Z,10.27
2019-03-20T03:50:51.641Z,12.17
2019-03-20T03:53:20.737Z,13.97
2019-03-20T03:55:49.830Z,11.47
2019-03-20T03:58:18.918Z,12.10
2019-03-20T04:00:47.991Z,14.27
2019-03-20T04:03:17.125Z,14.13
2019-03-20T04:05:46.232Z,15.20
2019-03-20T04:08:15.275Z,9.50
2019-03-20T04:10:44.396Z,13.50
2019-03-20T04:13:13.444Z,11.33
2019-03-20T04:15:42.491Z,14.60
2019-03-20T04:18:11.575Z,14.60
2019-03-20T04:20:40.655Z,11.50
2019-03-20T04:23:09.708Z,14.57
2019-03-20T04:25:38.688Z,11.90
2019-03-20T04:28:07.809Z,9.67
2019-03-20T04:30:36.776Z,7.10
2019-03-20T04:33:05.882Z,14.20
2019-03-20T04:35:34.852Z,11.33
2019-03-20T04:38:03.960Z,12.80
2019-03-20T04:40:32.971Z,12.40
2019-03-20T04:43:02.052Z,11.23
2019-03-20T04:45:31.112Z,13.20
2019-03-20T04:48:00.040Z,14.97
2019-03-20T04:50:29.120Z,11.73
2019-03-20T04:52:58.082Z,13.63
2019-03-20T04:55:27.065Z,13.63
2019-03-20T04:57:56.110Z,12.20
2019-03-20T05:00:25.175Z,11.53
2019-03-20T05:02:54.285Z,11.27
2019-03-20T05:05:23.324Z,9.03
2019-03-20T05:07:52.388Z,10.47
2019-03-20T05:10:21.520Z,8.23
2019-03-20T05:12:50.606Z,11.97
2019-03-20T05:15:19.672Z,8.20
2019-03-20T05:17:48.751Z,10.13
2019-03-20T05:20:17.900Z,10.60
2019-03-20T05:22:47.042Z,10.17
2019-03-20T05:25:16.140Z,11.57
2019-03-20T05:27:45.138Z,9.50
2019-03-20T05:30:14.199Z,12.60
2019-03-20T05:32:43.237Z,9.40
2019-03-20T05:35:12.412Z,12.07
2019-03-20T05:37:41.615Z,11.73
2019-03-20T05:40:11.756Z,13.80
2019-03-20T05:42:40.884Z,12.00
2019-03-20T05:45:11.162Z,11.53
2019-03-20T05:47:40.489Z,13.17
2019-03-20T05:50:10.405Z,15.17
2019-03-20T05:52:39.566Z,12.33
2019-03-20T05:55:09.011Z,11.87
2019-03-20T05:57:38.188Z,11.70
2019-03-20T06:00:08.046Z,10.10
2019-03-20T06:02:37.208Z,11.10
2019-03-20T06:05:06.332Z,12.30
2019-03-20T06:07:35.395Z,12.23
2019-03-20T06:10:05.374Z,12.43
2019-03-20T06:12:34.383Z,12.40
2019-03-20T06:15:03.492Z,11.83
2019-03-20T06:17:32.467Z,12.57
2019-03-20T06:20:01.476Z,12.53
2019-03-20T06:22:30.568Z,10.70
2019-03-20T06:24:59.653Z,13.77
2019-03-20T06:27:28.767Z,12.70
2019-03-20T06:29:57.679Z,11.93
2019-03-20T06:32:26.768Z,13.10
2019-03-20T06:34:55.770Z,14.20
2019-03-20T06:37:32.437Z,11.17
2019-03-20T06:39:55.612Z,13.27
2019-03-20T06:42:24.599Z,13.00
2019-03-20T06:44:53.696Z,12.13
2019-03-20T06:47:22.683Z,12.93
2019-03-20T06:49:51.776Z,13.47
2019-03-20T06:52:20.822Z,11.87
2019-03-20T06:54:49.978Z,12.33
2019-03-20T06:57:18.947Z,12.30
2019-03-20T07:00:30.520Z,12.90
2019-03-20T07:03:01.053Z,10.90
2019-03-20T07:06:15.675Z,13.70
2019-03-20T07:08:48.735Z,8.23
2019-03-20T07:11:17.323Z,13.03
2019-03-20T07:13:46.439Z,12.47
2019-03-20T07:16:15.525Z,11.27
2019-03-20T07:18:44.696Z,11.77
2019-03-20T07:21:13.784Z,12.60
2019-03-20T07:23:42.782Z,12.40
2019-03-20T07:26:11.776Z,12.30
2019-03-20T07:28:40.882Z,11.33
2019-03-20T07:31:15.163Z,12.87
2019-03-20T07:33:41.051Z,11.17
2019-03-20T07:36:10.586Z,10.97
2019-03-20T07:38:39.865Z,11.50
2019-03-20T07:41:08.927Z,11.60
2019-03-20T07:43:37.983Z,11.60
2019-03-20T07:46:07.389Z,11.53
2019-03-20T07:48:36.499Z,11.60
2019-03-20T07:51:05.819Z,12.93
2019-03-20T07:53:34.900Z,12.03
2019-03-20T07:56:04.247Z,10.67
2019-03-20T07:58:33.736Z,11.00
2019-03-20T08:01:05.455Z,12.00
2019-03-20T08:03:34.869Z,14.33
2019-03-20T08:06:04.164Z,11.67
2019-03-20T08:08:33.341Z,10.97
2019-03-20T08:11:02.464Z,9.43
2019-03-20T08:13:31.883Z,14.07
2019-03-20T08:16:00.949Z,12.80
2019-03-20T08:18:30.133Z,11.73
2019-03-20T08:20:59.788Z,9.27
2019-03-20T08:23:28.758Z,12.33
2019-03-20T08:25:57.939Z,13.10
2019-03-20T08:28:27.022Z,12.33
2019-03-20T08:30:56.215Z,12.37
2019-03-20T08:33:25.228Z,12.10
2019-03-20T08:35:54.654Z,12.57
2019-03-20T08:38:23.660Z,12.37
2019-03-20T08:40:52.944Z,12.33
2019-03-20T08:43:22.321Z,10.13
2019-03-20T08:45:51.449Z,12.47
2019-03-20T08:48:20.703Z,14.13
2019-03-20T08:50:49.823Z,15.10
2019-03-20T08:53:19.125Z,12.50
2019-03-20T08:55:48.381Z,10.30
2019-03-20T08:58:17.806Z,14.00
2019-03-20T09:00:46.955Z,12.00
2019-03-20T09:03:16.056Z,14.30
2019-03-20T09:05:45.336Z,15.33
2019-03-20T09:08:14.462Z,14.60
2019-03-20T09:10:43.639Z,13.00
2019-03-20T09:13:12.787Z,15.13
2019-03-20T09:15:42.233Z,17.60
2019-03-20T09:18:11.447Z,11.80
2019-03-20T09:20:40.693Z,14.57
2019-03-20T09:23:09.944Z,11.63
2019-03-20T09:25:39.072Z,11.33
2019-03-20T09:28:08.279Z,14.10
2019-03-20T09:30:37.676Z,16.03
2019-03-20T09:33:06.863Z,16.33
2019-03-20T09:35:35.945Z,18.57
2019-03-20T09:38:05.123Z,16.37
2019-03-20T09:40:34.361Z,15.80
2019-03-20T09:43:03.696Z,14.17
2019-03-20T09:45:32.911Z,13.13
2019-03-20T09:48:02.114Z,18.17
2019-03-20T09:50:31.247Z,11.67
2019-03-20T09:53:00.496Z,15.57
2019-03-20T09:55:29.414Z,16.67
2019-03-20T09:57:58.498Z,18.53
2019-03-20T10:00:27.789Z,19.40
2019-03-20T10:02:56.983Z,19.10
2019-03-20T10:05:26.120Z,16.47
2019-03-20T10:07:55.384Z,17.70
2019-03-20T10:10:24.760Z,19.00
2019-03-20T10:12:53.836Z,22.07
2019-03-20T10:15:22.907Z,21.23
2019-03-20T10:17:52.003Z,21.27
2019-03-20T10:20:21.132Z,15.83
2019-03-20T10:22:50.907Z,19.00
2019-03-20T10:25:20.368Z,15.83
2019-03-20T10:27:51.813Z,10.93
2019-03-20T10:30:21.143Z,15.17
2019-03-20T10:32:50.540Z,16.37
2019-03-20T10:35:19.908Z,15.43
2019-03-20T10:37:48.956Z,13.73
2019-03-20T10:40:19.458Z,13.57
2019-03-20T10:42:48.658Z,16.80
2019-03-20T10:45:18.184Z,15.70
2019-03-20T10:47:47.338Z,16.20
2019-03-20T10:50:18.008Z,16.27
2019-03-20T10:52:53.155Z,18.83
2019-03-20T10:55:22.521Z,16.03
2019-03-20T10:57:51.824Z,19.10
2019-03-20T11:00:21.485Z,16.87
2019-03-20T11:02:51.081Z,19.23
2019-03-20T11:05:20.877Z,19.13
2019-03-20T11:07:50.242Z,17.00
2019-03-20T11:10:21.071Z,20.07
2019-03-20T11:12:50.425Z,18.57
2019-03-20T11:15:19.586Z,19.17
2019-03-20T11:17:48.821Z,20.67
2019-03-20T11:20:18.218Z,17.93
2019-03-20T11:22:47.417Z,15.70
2019-03-20T11:25:17.842Z,12.97
2019-03-20T11:27:47.105Z,17.27
2019-03-20T11:30:18.624Z,17.17
2019-03-20T11:32:47.913Z,15.13
2019-03-20T11:35:17.115Z,12.40
2019-03-20T11:37:46.367Z,12.03
2019-03-20T11:40:20.657Z,13.97
2019-03-20T11:42:49.859Z,11.13
2019-03-20T11:45:19.102Z,13.00
2019-03-20T11:47:48.333Z,12.87
2019-03-20T11:50:20.874Z,11.27
2019-03-20T11:52:50.156Z,10.47
2019-03-20T11:55:19.435Z,12.60
2019-03-20T11:57:50.408Z,12.30
2019-03-20T12:00:19.770Z,12.47
2019-03-20T12:02:48.940Z,14.43
2019-03-20T12:05:18.025Z,13.17
2019-03-20T12:07:47.271Z,11.33
2019-03-20T12:10:20.486Z,12.53
2019-03-20T12:12:49.744Z,12.20
2019-03-20T12:15:18.900Z,11.10
2019-03-20T12:17:48.160Z,13.07
2019-03-20T12:20:18.616Z,13.47
2019-03-20T12:22:48.107Z,12.80
2019-03-20T12:25:19.521Z,11.47
2019-03-20T12:27:48.876Z,13.27
2019-03-20T12:30:20.239Z,14.17
2019-03-20T12:32:49.417Z,16.27
2019-03-20T12:35:18.690Z,12.63
2019-03-20T12:37:48.033Z,14.13
2019-03-20T12:40:22.064Z,14.70
2019-03-20T12:42:51.471Z,14.93
2019-03-20T12:45:22.279Z,16.60
2019-03-20T12:47:51.619Z,15.97
2019-03-20T12:50:21.042Z,12.33
2019-03-20T12:52:50.576Z,13.27
2019-03-20T12:55:20.277Z,10.73
2019-03-20T12:57:49.779Z,10.83
2019-03-20T13:00:20.654Z,11.90
2019-03-20T13:02:50.043Z,12.03
2019-03-20T13:05:19.432Z,13.73
2019-03-20T13:07:48.729Z,11.87
2019-03-20T13:10:18.927Z,10.30
2019-03-20T13:12:48.233Z,12.70
2019-03-20T13:15:21.692Z,13.27
2019-03-20T13:17:50.932Z,12.63
2019-03-20T13:20:20.586Z,13.37
2019-03-20T13:22:55.786Z,12.57
2019-03-20T13:25:24.987Z,14.30
2019-03-20T13:27:54.315Z,12.90
2019-03-20T13:30:29.107Z,10.73
2019-03-20T13:32:58.593Z,13.70
2019-03-20T13:35:27.807Z,14.53
2019-03-20T13:37:57.119Z,15.20
2019-03-20T13:40:26.301Z,11.43
2019-03-20T13:42:55.489Z,10.23
2019-03-20T13:45:24.720Z,12.80
2019-03-20T13:47:54.795Z,11.47
2019-03-20T13:50:24.037Z,13.40
2019-03-20T13:52:53.556Z,12.50
2019-03-20T13:55:22.847Z,12.50
2019-03-20T13:57:52.244Z,13.67
2019-03-20T14:00:21.878Z,14.37
2019-03-20T14:02:51.115Z,12.90
2019-03-20T14:05:21.971Z,15.93
2019-03-20T14:07:51.283Z,14.63
2019-03-20T14:10:24.972Z,12.23
2019-03-20T14:12:52.520Z,14.07
2019-03-20T14:15:22.608Z,13.93
2019-03-20T14:17:52.149Z,13.07
2019-03-20T14:20:22.945Z,13.63
2019-03-20T14:22:52.168Z,14.03
2019-03-20T14:25:21.348Z,13.63
2019-03-20T14:27:50.784Z,12.77
2019-03-20T14:30:39.272Z,12.60
2019-03-20T14:33:06.880Z,13.30
2019-03-20T14:35:36.038Z,12.67
2019-03-20T14:38:05.299Z,14.33
2019-03-20T14:40:36.546Z,15.53
2019-03-20T14:43:05.873Z,14.30
2019-03-20T14:45:35.240Z,14.83
2019-03-20T14:48:04.489Z,12.47
2019-03-20T14:50:33.653Z,14.37
2019-03-20T14:53:02.855Z,16.87
2019-03-20T14:55:32.049Z,16.37
2019-03-20T14:58:01.396Z,18.37
2019-03-20T15:00:30.787Z,15.40
2019-03-20T15:03:00.055Z,19.30
2019-03-20T15:05:29.504Z,12.20
2019-03-20T15:07:58.900Z,16.60
2019-03-20T15:10:28.119Z,17.47
2019-03-20T15:12:57.481Z,14.67
2019-03-20T15:15:35.912Z,13.40
2019-03-20T15:18:05.557Z,11.30
2019-03-20T15:20:34.854Z,11.87
2019-03-20T15:23:04.181Z,11.07
2019-03-20T15:25:33.429Z,10.47
2019-03-20T15:28:02.753Z,10.57
2019-03-20T15:30:40.911Z,10.87
2019-03-20T15:33:10.518Z,12.50
2019-03-20T15:35:40.006Z,10.63
2019-03-20T15:38:09.451Z,13.33
2019-03-20T15:40:38.740Z,13.90
2019-03-20T15:43:08.089Z,11.10
2019-03-20T15:45:37.915Z,11.30
2019-03-20T15:48:07.212Z,10.83
2019-03-20T15:50:36.429Z,11.37
2019-03-20T15:53:05.764Z,11.50
2019-03-20T15:55:34.959Z,11.37
2019-03-20T15:58:04.518Z,12.77
2019-03-20T16:00:33.746Z,12.20
2019-03-20T16:03:05.917Z,11.30
2019-03-20T16:05:35.131Z,9.87
2019-03-20T16:08:04.484Z,13.00
2019-03-20T16:10:33.770Z,10.90
2019-03-20T16:13:02.984Z,11.20
2019-03-20T16:15:32.402Z,12.07
2019-03-20T16:18:01.557Z,9.67
2019-03-20T16:20:30.774Z,12.43
2019-03-20T16:22:59.843Z,11.93
2019-03-20T16:25:28.984Z,11.87
2019-03-20T16:27:58.075Z,12.47
2019-03-20T16:30:27.157Z,12.10
2019-03-20T16:32:56.664Z,9.50
2019-03-20T16:35:25.824Z,14.10
2019-03-20T16:37:54.960Z,12.43
2019-03-20T16:40:24.768Z,12.03
2019-03-20T16:42:54.039Z,12.00
2019-03-20T16:45:27.627Z,12.13
2019-03-20T16:47:56.707Z,12.63
2019-03-20T16:50:25.792Z,9.90
2019-03-20T16:52:54.795Z,11.00
2019-03-20T16:55:23.915Z,11.67
2019-03-20T16:57:53.031Z,11.80
2019-03-20T17:00:24.162Z,10.47
2019-03-20T17:02:53.278Z,9.93
2019-03-20T17:05:22.872Z,11.77
2019-03-20T17:07:51.954Z,12.00
2019-03-20T17:10:25.986Z,12.67
2019-03-20T17:12:55.055Z,11.50
2019-03-20T17:15:24.959Z,9.97
2019-03-20T17:17:54.003Z,10.40
2019-03-20T17:20:23.055Z,10.13
2019-03-20T17:22:52.235Z,13.27
2019-03-20T17:25:21.278Z,13.07
2019-03-20T17:27:50.337Z,11.40
2019-03-20T17:30:30.547Z,12.17
2019-03-20T17:32:59.637Z,14.07
2019-03-20T17:35:28.751Z,11.60
2019-03-20T17:37:57.849Z,12.47
2019-03-20T17:40:26.984Z,12.00
2019-03-20T17:42:56.053Z,11.60
2019-03-20T17:45:25.542Z,14.70
2019-03-20T17:47:54.642Z,11.70
2019-03-20T17:50:25.400Z,13.20
2019-03-20T17:52:54.622Z,10.37
2019-03-20T17:55:23.670Z,13.53
2019-03-20T17:57:52.816Z,12.20
2019-03-20T18:00:26.984Z,13.57
2019-03-20T18:02:56.080Z,14.60
2019-03-20T18:05:25.125Z,11.90
2019-03-20T18:07:54.167Z,13.03
2019-03-20T18:10:23.200Z,12.50
2019-03-20T18:12:52.324Z,14.00
2019-03-20T18:15:21.371Z,12.87
2019-03-20T18:17:50.446Z,14.53
2019-03-20T18:20:19.535Z,14.20
2019-03-20T18:22:48.591Z,10.87
2019-03-20T18:25:17.722Z,12.67
2019-03-20T18:27:46.884Z,14.90
2019-03-20T18:30:20.637Z,13.90
2019-03-20T18:32:49.965Z,12.83
2019-03-20T18:35:19.051Z,10.83
2019-03-20T18:37:48.141Z,14.90
2019-03-20T18:40:17.760Z,17.87
2019-03-20T18:42:46.793Z,16.73
2019-03-20T18:45:16.849Z,16.77
2019-03-20T18:47:46.015Z,14.77
2019-03-20T18:50:15.836Z,15.97
2019-03-20T18:52:44.916Z,13.67
2019-03-20T18:55:16.020Z,16.37
2019-03-20T18:57:45.100Z,16.10
2019-03-20T19:00:19.504Z,12.80
2019-03-20T19:02:48.733Z,14.77
2019-03-20T19:05:20.929Z,14.40
2019-03-20T19:07:50.024Z,13.20
2019-03-20T19:10:19.190Z,9.47
2019-03-20T19:12:48.360Z,12.37
2019-03-20T19:15:17.483Z,15.97
2019-03-20T19:17:46.525Z,14.27
2019-03-20T19:20:15.600Z,13.47
2019-03-20T19:22:44.761Z,16.37
2019-03-20T19:25:13.825Z,16.80
2019-03-20T19:27:42.907Z,14.90
2019-03-20T19:30:15.501Z,13.57
2019-03-20T19:32:44.588Z,13.50
2019-03-20T19:35:13.762Z,13.60
2019-03-20T19:37:42.884Z,13.23
2019-03-20T19:40:12.250Z,13.13
2019-03-20T19:42:41.384Z,13.77
2019-03-20T19:45:10.672Z,13.33
2019-03-20T19:47:39.707Z,13.17
2019-03-20T19:50:10.591Z,13.27
2019-03-20T19:52:39.708Z,11.63
2019-03-20T19:55:08.898Z,12.40
2019-03-20T19:57:37.985Z,12.17
2019-03-20T20:00:08.515Z,12.43
2019-03-20T20:02:37.572Z,13.40
2019-03-20T20:05:15.329Z,13.60
2019-03-20T20:07:37.750Z,14.20
2019-03-20T20:10:07.344Z,12.10
2019-03-20T20:12:36.333Z,12.57
2019-03-20T20:15:06.628Z,12.07
2019-03-20T20:17:35.622Z,12.53
2019-03-20T20:20:05.760Z,11.90
2019-03-20T20:22:34.748Z,13.90
2019-03-20T20:25:04.179Z,12.03
2019-03-20T20:27:33.157Z,13.17
2019-03-20T20:30:02.065Z,12.03
2019-03-20T20:32:31.112Z,10.63
2019-03-20T20:35:00.330Z,12.10
2019-03-20T20:37:29.364Z,11.33
2019-03-20T20:39:58.455Z,10.70
2019-03-20T20:42:27.397Z,7.57
2019-03-20T20:44:56.413Z,12.07
2019-03-20T20:47:25.450Z,11.13
2019-03-20T20:49:54.407Z,10.53
2019-03-20T20:52:23.413Z,10.90
2019-03-20T20:54:52.440Z,8.70
2019-03-20T20:57:21.511Z,8.13
2019-03-20T20:59:50.590Z,9.30
2019-03-20T21:02:19.679Z,8.73
2019-03-20T21:04:48.719Z,10.40
2019-03-20T21:07:17.708Z,7.93
2019-03-20T21:09:46.876Z,7.60
2019-03-20T21:12:15.821Z,9.63
2019-03-20T21:14:44.944Z,9.53
2019-03-20T21:17:19.599Z,8.87
2019-03-20T21:19:49.104Z,11.30
2019-03-20T21:22:46.675Z,9.27
2019-03-20T21:25:17.616Z,9.50
2019-03-20T21:28:23.111Z,8.23
2019-03-20T21:31:17.829Z,8.03
2019-03-20T21:34:32.525Z,7.47
2019-03-20T21:37:38.316Z,8.53
2019-03-20T21:40:09.050Z,7.43
2019-03-20T21:43:17.658Z,7.20
2019-03-20T21:46:07.581Z,7.50
2019-03-20T21:48:37.181Z,7.20
2019-03-20T21:51:17.223Z,9.00
2019-03-20T21:54:40.783Z,8.47
2019-03-20T21:57:52.449Z,9.50
2019-03-20T22:00:57.195Z,8.20
2019-03-20T22:03:26.828Z,7.87
2019-03-20T22:06:39.834Z,9.07
2019-03-20T22:09:33.729Z,7.13
2019-03-20T22:12:18.999Z,10.37
2019-03-20T22:14:52.980Z,9.43
2019-03-20T22:18:16.700Z,11.00
2019-03-20T22:21:01.007Z,10.63
2019-03-20T22:24:04.995Z,10.13
2019-03-20T22:27:21.379Z,9.80
2019-03-20T22:29:50.963Z,10.80
2019-03-20T22:33:01.356Z,10.53
2019-03-20T22:35:39.551Z,10.00
2019-03-20T22:38:24.884Z,11.17
2019-03-20T22:41:50.112Z,11.30
2019-03-20T22:44:21.907Z,10.67
2019-03-20T22:47:26.288Z,10.10
2019-03-20T22:50:11.258Z,9.83
2019-03-20T22:53:32.495Z,9.57
2019-03-20T22:56:37.321Z,10.53
2019-03-20T22:59:06.911Z,9.00
2019-03-20T23:02:19.866Z,9.10
2019-03-20T23:04:55.513Z,9.93
2019-03-20T23:07:25.189Z,10.47
2019-03-20T23:09:54.816Z,9.00
2019-03-20T23:12:24.494Z,8.63
2019-03-20T23:14:54.151Z,8.70
2019-03-20T23:17:23.763Z,8.77
2019-03-20T23:19:54.648Z,9.03
2019-03-20T23:22:24.283Z,9.17
2019-03-20T23:24:54.001Z,7.47
2019-03-20T23:27:29.161Z,8.23
2019-03-20T23:29:58.908Z,8.73
2019-03-20T23:32:28.788Z,7.63
2019-03-20T23:34:58.380Z,9.13
2019-03-20T23:37:28.052Z,9.93
2019-03-20T23:39:57.779Z,8.07
2019-03-20T23:42:27.673Z,9.63
2019-03-20T23:44:57.144Z,9.67
2019-03-20T23:47:49.591Z,8.33
2019-03-20T23:50:19.219Z,9.07
2019-03-20T23:52:48.792Z,10.10
2019-03-20T23:55:18.447Z,10.20
2019-03-20T23:57:48.027Z,10.47
